Time;durP1;ratioP1;P1;durP2;ratioP2;P2;SDS_P1;SDS_P2;PMS_P1;PMS_P2;Temp;Humidity;BMP_temperature;BMP_pressure;BME280_temperature;BME280_humidity;BME280_pressure;Samples;Min_cycle;Max_cycle;Signal;HPM_P1;HPM_P2
2022/04/26 03:37:05;;;;;;;3.42;1.23;;;;;;;;;;5095091;28;20063;-88
2022/04/26 03:39:34;;;;;;;2.00;1.02;;;;;;;;;;5094853;28;20020;-87
2022/04/26 03:42:02;;;;;;;3.17;0.87;;;;;;;;;;5094925;28;20028;-86
2022/04/26 03:44:28;;;;;;;1.80;0.90;;;;;;;;;;5094872;28;20424;-86
2022/04/26 03:46:53;;;;;;;2.13;1.17;;;;;;;;;;5093373;28;20030;-87
2022/04/26 03:49:19;;;;;;;4.28;1.05;;;;;;;;;;5093027;28;20054;-87
2022/04/26 03:51:45;;;;;;;4.32;1.00;;;;;;;;;;5093174;28;20042;-86
2022/04/26 03:54:10;;;;;;;2.38;0.90;;;;;;;;;;5092822;28;20503;-86
2022/04/26 03:56:36;;;;;;;2.42;0.98;;;;;;;;;;5089999;28;20098;-85
2022/04/26 03:59:01;;;;;;;1.30;0.90;;;;;;;;;;5092257;28;20200;-86
2022/04/26 04:01:27;;;;;;;1.95;1.00;;;;;;;;;;5093139;28;20107;-87
2022/04/26 04:03:52;;;;;;;1.95;1.00;;;;;;;;;;5092716;28;20039;-86
2022/04/26 04:06:17;;;;;;;1.55;1.08;;;;;;;;;;5094128;28;20032;-87
2022/04/26 04:08:43;;;;;;;4.40;1.40;;;;;;;;;;5092741;28;20031;-87
2022/04/26 04:11:08;;;;;;;4.03;1.10;;;;;;;;;;5092759;28;20032;-87
2022/04/26 04:13:34;;;;;;;1.50;0.98;;;;;;;;;;5092831;28;20077;-85
2022/04/26 04:15:59;;;;;;;6.40;1.20;;;;;;;;;;5092987;28;20047;-86
2022/04/26 04:21:09;;;;;;;1.77;1.02;;;;;;;;;;5091313;28;20050;-86
2022/04/26 04:23:38;;;;;;;1.88;1.13;;;;;;;;;;5092339;28;20020;-87
2022/04/26 04:26:04;;;;;;;3.65;1.15;;;;;;;;;;5089978;28;20032;-85
2022/04/26 04:28:31;;;;;;;3.97;1.15;;;;;;;;;;5092432;28;20028;-85
2022/04/26 04:30:57;;;;;;;3.13;1.20;;;;;;;;;;5092536;28;20027;-86
2022/04/26 04:33:22;;;;;;;2.10;1.10;;;;;;;;;;5090134;28;20024;-87
2022/04/26 04:35:48;;;;;;;2.55;1.17;;;;;;;;;;5092735;28;20035;-85
2022/04/26 04:38:13;;;;;;;2.05;1.05;;;;;;;;;;5091991;28;20149;-85
2022/04/26 04:40:39;;;;;;;1.17;0.90;;;;;;;;;;5091977;28;20073;-89
2022/04/26 04:43:05;;;;;;;2.00;1.17;;;;;;;;;;5092842;28;20036;-86
2022/04/26 04:45:31;;;;;;;1.40;0.90;;;;;;;;;;5088393;28;20020;-86
2022/04/26 04:47:56;;;;;;;2.63;1.33;;;;;;;;;;5091307;28;20024;-86
2022/04/26 04:50:22;;;;;;;3.17;1.23;;;;;;;;;;5091388;28;20464;-86
2022/04/26 04:52:47;;;;;;;1.80;1.33;;;;;;;;;;5093291;28;20016;-87
2022/04/26 04:55:13;;;;;;;2.00;1.20;;;;;;;;;;5093115;28;20028;-86
2022/04/26 04:57:39;;;;;;;2.75;1.50;;;;;;;;;;5091320;28;20548;-85
2022/04/26 05:00:05;;;;;;;2.10;1.30;;;;;;;;;;5093078;28;20035;-86
2022/04/26 05:02:30;;;;;;;3.45;1.10;;;;;;;;;;5091570;28;20094;-84
2022/04/26 05:04:56;;;;;;;2.83;1.10;;;;;;;;;;5092405;28;20078;-86
2022/04/26 05:07:21;;;;;;;2.10;1.30;;;;;;;;;;5089819;28;20118;-87
2022/04/26 05:09:47;;;;;;;2.65;1.13;;;;;;;;;;5092395;28;20031;-86
2022/04/26 05:12:12;;;;;;;2.40;1.20;;;;;;;;;;5092585;28;20478;-86
2022/04/26 05:14:38;;;;;;;1.55;0.95;;;;;;;;;;5092918;28;20485;-85
2022/04/26 05:17:03;;;;;;;3.80;1.70;;;;;;;;;;5091782;28;20106;-85
2022/04/26 05:19:28;;;;;;;4.40;1.48;;;;;;;;;;5091250;28;20024;-87
2022/04/26 05:21:54;;;;;;;3.38;1.42;;;;;;;;;;5091551;28;20016;-87
2022/04/26 05:27:03;;;;;;;1.40;0.90;;;;;;;;;;5092420;28;20145;-85
2022/04/26 05:29:29;;;;;;;2.53;1.30;;;;;;;;;;5092248;28;20480;-85
2022/04/26 05:31:54;;;;;;;3.42;1.35;;;;;;;;;;5090910;28;20424;-86
2022/04/26 05:34:20;;;;;;;3.90;1.33;;;;;;;;;;5091991;28;20491;-84
2022/04/26 05:36:45;;;;;;;4.45;1.20;;;;;;;;;;5091841;28;20089;-85
2022/04/26 05:39:11;;;;;;;3.90;1.10;;;;;;;;;;5090728;28;20047;-83
2022/04/26 05:41:37;;;;;;;6.10;1.20;;;;;;;;;;5081280;28;20036;-84
2022/04/26 05:44:02;;;;;;;1.30;1.10;;;;;;;;;;5090415;28;20030;-87
2022/04/26 05:46:28;;;;;;;2.65;1.33;;;;;;;;;;5088727;28;20027;-85
2022/04/26 05:48:53;;;;;;;4.63;1.15;;;;;;;;;;5088283;28;20020;-84
2022/04/26 05:51:19;;;;;;;1.58;1.00;;;;;;;;;;5087584;28;20027;-85
2022/04/26 05:53:44;;;;;;;1.98;1.05;;;;;;;;;;5090359;28;20024;-85
2022/04/26 05:56:12;;;;;;;3.70;1.50;;;;;;;;;;5090269;28;20055;-84
2022/04/26 05:58:38;;;;;;;3.92;1.13;;;;;;;;;;5090441;28;20012;-84
2022/04/26 06:01:03;;;;;;;3.33;1.08;;;;;;;;;;5090750;28;20085;-85
2022/04/26 06:03:29;;;;;;;2.78;1.40;;;;;;;;;;5090376;28;20028;-85
2022/04/26 06:05:55;;;;;;;5.00;1.38;;;;;;;;;;5087215;28;20114;-84
2022/04/26 06:08:22;;;;;;;2.22;1.23;;;;;;;;;;5088358;28;20055;-83
2022/04/26 06:10:48;;;;;;;2.05;1.23;;;;;;;;;;5083157;28;20081;-84
2022/04/26 06:13:15;;;;;;;4.38;1.30;;;;;;;;;;5085251;28;20102;-85
2022/04/26 06:15:40;;;;;;;2.92;1.38;;;;;;;;;;5091670;28;20020;-85
2022/04/26 06:18:06;;;;;;;1.95;1.00;;;;;;;;;;5090373;28;20028;-85
2022/04/26 06:20:32;;;;;;;4.15;1.50;;;;;;;;;;5091243;28;20111;-84
2022/04/26 06:22:58;;;;;;;3.88;1.33;;;;;;;;;;5094175;28;20028;-85
2022/04/26 06:25:23;;;;;;;7.68;3.47;;;;;;;;;;5094551;28;20023;-86
2022/04/26 06:27:48;;;;;;;3.97;1.60;;;;;;;;;;5095478;28;20466;-83
2022/04/26 06:30:15;;;;;;;6.43;2.70;;;;;;;;;;5094268;28;20483;-84
2022/04/26 06:32:42;;;;;;;4.00;1.20;;;;;;;;;;5092523;28;20020;-84
2022/04/26 06:35:09;;;;;;;4.53;1.20;;;;;;;;;;5095939;28;20423;-84
2022/04/26 06:37:34;;;;;;;4.53;1.40;;;;;;;;;;5109334;28;20484;-85
2022/04/26 06:40:00;;;;;;;6.75;1.98;;;;;;;;;;5094814;28;20020;-85
2022/04/26 06:42:25;;;;;;;28.10;17.95;;;;;;;;;;5093900;28;20023;-85
2022/04/26 06:44:51;;;;;;;12.55;5.07;;;;;;;;;;5094127;28;20031;-84
2022/04/26 06:47:16;;;;;;;3.88;1.98;;;;;;;;;;5093341;28;20028;-86
2022/04/26 06:49:41;;;;;;;5.03;1.52;;;;;;;;;;5094830;28;20032;-84
2022/04/26 06:52:07;;;;;;;1.58;1.00;;;;;;;;;;5093878;28;20135;-86
2022/04/26 06:54:32;;;;;;;5.65;2.30;;;;;;;;;;5091107;28;20056;-84
2022/04/26 06:56:58;;;;;;;4.35;1.42;;;;;;;;;;5095304;28;20028;-86
2022/04/26 06:59:23;;;;;;;8.40;3.75;;;;;;;;;;5095078;28;20020;-85
2022/04/26 07:01:52;;;;;;;2.25;1.58;;;;;;;;;;5095066;28;20590;-85
2022/04/26 07:04:19;;;;;;;3.10;1.48;;;;;;;;;;5095180;28;20478;-84
2022/04/26 07:06:45;;;;;;;8.02;3.05;;;;;;;;;;5093840;28;20081;-86
2022/04/26 07:09:11;;;;;;;6.88;2.10;;;;;;;;;;5093602;28;20028;-84
2022/04/26 07:11:36;;;;;;;12.75;7.10;;;;;;;;;;5094936;28;20047;-86
2022/04/26 07:14:02;;;;;;;2.80;1.52;;;;;;;;;;5093565;28;20066;-85
2022/04/26 07:16:27;;;;;;;4.97;1.90;;;;;;;;;;5095160;28;20073;-86
2022/04/26 07:18:53;;;;;;;2.42;1.30;;;;;;;;;;5093473;28;20023;-85
2022/04/26 07:21:18;;;;;;;2.80;1.50;;;;;;;;;;5092071;28;20036;-84
2022/04/26 07:23:44;;;;;;;5.47;1.20;;;;;;;;;;5089246;28;20020;-84
2022/04/26 07:26:09;;;;;;;3.72;1.65;;;;;;;;;;5093348;28;20032;-84
2022/04/26 07:28:35;;;;;;;5.15;1.90;;;;;;;;;;5093272;28;20070;-84
2022/04/26 07:31:00;;;;;;;2.70;1.20;;;;;;;;;;5093835;28;20055;-84
2022/04/26 07:36:10;;;;;;;4.65;2.17;;;;;;;;;;5094567;28;20063;-83
2022/04/26 07:38:36;;;;;;;3.60;1.45;;;;;;;;;;5093814;28;20476;-84
2022/04/26 07:41:02;;;;;;;2.60;1.10;;;;;;;;;;5094246;28;20387;-86
2022/04/26 07:43:28;;;;;;;3.88;1.20;;;;;;;;;;5093996;28;20032;-86
2022/04/26 07:45:54;;;;;;;3.40;0.95;;;;;;;;;;5093130;28;20023;-85
2022/04/26 07:48:21;;;;;;;4.80;1.50;;;;;;;;;;5091291;28;20427;-84
2022/04/26 07:50:48;;;;;;;3.38;1.20;;;;;;;;;;5091965;28;20040;-85
2022/04/26 07:53:13;;;;;;;6.10;1.58;;;;;;;;;;5091260;28;20028;-87
2022/04/26 07:55:39;;;;;;;9.10;2.95;;;;;;;;;;5089746;28;20032;-84
2022/04/26 07:58:05;;;;;;;6.43;1.77;;;;;;;;;;5089347;28;20020;-86
2022/04/26 08:00:30;;;;;;;24.30;6.82;;;;;;;;;;5088422;28;20032;-86
2022/04/26 08:02:56;;;;;;;6.63;1.98;;;;;;;;;;5092520;28;20028;-84
2022/04/26 08:05:22;;;;;;;6.88;2.00;;;;;;;;;;5092789;28;20024;-84
2022/04/26 08:07:49;;;;;;;2.30;1.48;;;;;;;;;;5092200;28;20153;-84
2022/04/26 08:10:15;;;;;;;6.28;2.20;;;;;;;;;;5092003;28;20043;-88
2022/04/26 08:12:42;;;;;;;6.35;1.50;;;;;;;;;;5093674;28;20024;-86
2022/04/26 08:15:10;;;;;;;7.35;2.63;;;;;;;;;;5087781;28;20058;-85
2022/04/26 08:17:36;;;;;;;10.77;1.75;;;;;;;;;;5090558;28;20519;-86
2022/04/26 08:20:04;;;;;;;7.53;1.85;;;;;;;;;;5088282;28;20470;-85
2022/04/26 08:22:30;;;;;;;6.07;2.00;;;;;;;;;;5084562;28;20115;-86
2022/04/26 08:27:40;;;;;;;3.95;1.50;;;;;;;;;;5092326;28;20043;-87
2022/04/26 08:30:06;;;;;;;6.47;2.08;;;;;;;;;;5087916;28;20035;-85
2022/04/26 08:32:43;;;;;;;5.80;1.83;;;;;;;;;;5087576;28;20098;-83
2022/04/26 08:35:11;;;;;;;8.18;2.10;;;;;;;;;;5091600;28;20024;-86
2022/04/26 08:37:38;;;;;;;8.45;2.10;;;;;;;;;;5089335;28;20064;-86
2022/04/26 08:40:07;;;;;;;5.10;1.90;;;;;;;;;;5090417;28;20529;-84
2022/04/26 08:42:34;;;;;;;7.30;2.10;;;;;;;;;;5084055;28;20031;-84
2022/04/26 08:45:05;;;;;;;6.05;2.22;;;;;;;;;;5089911;28;20107;-89
2022/04/26 08:52:59;;;;;;;8.32;2.38;;;;;;;;;;5086644;28;20044;-86
2022/04/26 08:55:25;;;;;;;5.82;2.08;;;;;;;;;;5088031;28;20036;-85
2022/04/26 08:57:52;;;;;;;3.00;1.90;;;;;;;;;;5086071;28;20035;-85
2022/04/26 09:00:18;;;;;;;6.78;2.20;;;;;;;;;;5086809;28;20063;-85
2022/04/26 09:03:00;;;;;;;6.70;2.30;;;;;;;;;;5091379;28;20486;-84
2022/04/26 09:05:26;;;;;;;6.60;1.75;;;;;;;;;;5087820;28;20024;-84
2022/04/26 09:07:51;;;;;;;8.23;2.10;;;;;;;;;;5089670;28;20034;-85
2022/04/26 09:10:19;;;;;;;6.00;2.92;;;;;;;;;;5090575;28;20020;-86
2022/04/26 09:13:07;;;;;;;4.47;1.90;;;;;;;;;;5090068;28;20032;-86
2022/04/26 09:15:54;;;;;;;5.63;2.10;;;;;;;;;;5090218;28;20485;-85
2022/04/26 09:18:27;;;;;;;4.85;1.70;;;;;;;;;;5085585;28;20017;-81
2022/04/26 09:21:09;;;;;;;6.72;2.08;;;;;;;;;;5104546;28;20030;-81
2022/04/26 09:23:38;;;;;;;9.00;2.30;;;;;;;;;;5089185;28;20038;-85
2022/04/26 09:26:12;;;;;;;5.22;2.00;;;;;;;;;;5091320;28;20041;-83
2022/04/26 09:28:58;;;;;;;7.70;2.33;;;;;;;;;;5088419;28;20024;-85
2022/04/26 09:31:26;;;;;;;8.23;2.58;;;;;;;;;;5088450;28;20036;-84
2022/04/26 09:33:53;;;;;;;4.57;1.92;;;;;;;;;;5086955;28;20028;-85
2022/04/26 09:36:24;;;;;;;5.10;2.42;;;;;;;;;;5090761;28;20043;-86
2022/04/26 09:38:55;;;;;;;8.10;2.35;;;;;;;;;;5088935;28;20073;-85
2022/04/26 09:41:21;;;;;;;6.80;2.58;;;;;;;;;;5087880;28;20024;-85
2022/04/26 09:44:06;;;;;;;5.97;2.25;;;;;;;;;;5088459;28;20049;-85
2022/04/26 09:46:40;;;;;;;6.40;2.30;;;;;;;;;;5084154;28;20112;-85
2022/04/26 09:49:09;;;;;;;6.32;2.22;;;;;;;;;;5087985;28;20043;-85
2022/04/26 09:51:36;;;;;;;13.15;2.78;;;;;;;;;;5080751;28;20379;-83
2022/04/26 09:54:02;;;;;;;6.68;2.50;;;;;;;;;;5089281;28;20491;-83
2022/04/26 09:56:30;;;;;;;8.88;2.92;;;;;;;;;;5087532;28;20152;-85
2022/04/26 09:58:58;;;;;;;6.22;2.10;;;;;;;;;;5087896;28;20016;-85
2022/04/26 10:01:45;;;;;;;5.65;2.00;;;;;;;;;;5085777;28;20058;-86
2022/04/26 10:04:20;;;;;;;4.78;2.13;;;;;;;;;;5085704;28;20055;-86
2022/04/26 10:06:47;;;;;;;5.97;2.30;;;;;;;;;;5089454;28;20051;-85
2022/04/26 10:09:13;;;;;;;8.40;2.30;;;;;;;;;;5089291;28;20028;-86
2022/04/26 10:11:39;;;;;;;5.55;2.10;;;;;;;;;;5085997;28;20357;-84
2022/04/26 10:14:07;;;;;;;7.82;2.30;;;;;;;;;;5087154;28;20035;-85
2022/04/26 10:16:33;;;;;;;9.40;2.35;;;;;;;;;;5089135;28;20103;-85
2022/04/26 10:19:09;;;;;;;6.93;2.35;;;;;;;;;;5086898;28;20136;-84
2022/04/26 10:21:40;;;;;;;6.75;2.20;;;;;;;;;;5089375;28;20020;-85
2022/04/26 10:24:19;;;;;;;11.65;2.65;;;;;;;;;;5089441;28;20027;-83
2022/04/26 10:26:45;;;;;;;6.97;2.10;;;;;;;;;;5084754;28;20422;-85
2022/04/26 10:29:10;;;;;;;7.35;2.20;;;;;;;;;;5104720;28;20479;-87
2022/04/26 10:31:49;;;;;;;8.60;2.05;;;;;;;;;;5088154;28;20019;-84
2022/04/26 10:34:18;;;;;;;4.50;2.10;;;;;;;;;;5098661;28;20071;-84
2022/04/26 10:36:44;;;;;;;7.97;2.30;;;;;;;;;;5085946;28;20044;-85
2022/04/26 10:39:24;;;;;;;3.38;1.52;;;;;;;;;;5086382;28;20032;-81
2022/04/26 10:41:50;;;;;;;5.95;1.92;;;;;;;;;;5091091;28;20032;-82
2022/04/26 10:44:16;;;;;;;6.50;2.03;;;;;;;;;;5089024;28;20063;-84
2022/04/26 10:46:58;;;;;;;7.95;2.22;;;;;;;;;;5090927;28;20554;-83
2022/04/26 10:49:38;;;;;;;5.57;1.92;;;;;;;;;;5082540;28;20395;-86
2022/04/26 10:52:19;;;;;;;8.88;2.20;;;;;;;;;;5085668;28;20373;-84
2022/04/26 10:55:01;;;;;;;7.15;2.63;;;;;;;;;;5085509;28;20020;-85
2022/04/26 10:57:36;;;;;;;10.82;1.90;;;;;;;;;;5087301;28;20051;-85
2022/04/26 11:00:06;;;;;;;7.93;2.72;;;;;;;;;;5090489;28;20034;-85
2022/04/26 11:02:39;;;;;;;6.35;2.00;;;;;;;;;;5089358;28;20360;-86
2022/04/26 11:05:10;;;;;;;4.63;1.95;;;;;;;;;;5090176;28;20028;-90
2022/04/26 11:07:37;;;;;;;6.78;1.80;;;;;;;;;;5088991;28;20517;-85
2022/04/26 11:10:04;;;;;;;8.00;2.00;;;;;;;;;;5090523;28;20089;-84
2022/04/26 11:12:35;;;;;;;7.25;1.98;;;;;;;;;;5092171;28;20020;-89
2022/04/26 11:15:05;;;;;;;6.38;2.25;;;;;;;;;;5092722;28;20027;-84
2022/04/26 11:17:31;;;;;;;6.53;2.28;;;;;;;;;;5091926;28;20518;-85
2022/04/26 11:19:59;;;;;;;7.80;2.35;;;;;;;;;;5088766;28;20024;-85
2022/04/26 11:22:26;;;;;;;6.20;2.00;;;;;;;;;;5091304;28;20518;-86
2022/04/26 11:28:05;;;;;;;8.18;2.25;;;;;;;;;;5090419;28;20053;-86
2022/04/26 11:30:43;;;;;;;3.05;1.50;;;;;;;;;;5091127;28;20391;-87
2022/04/26 11:33:18;;;;;;;5.70;1.70;;;;;;;;;;5107172;28;20384;-89
2022/04/26 11:35:50;;;;;;;3.95;1.75;;;;;;;;;;5086338;28;20175;-88
2022/04/26 11:38:16;;;;;;;5.22;2.10;;;;;;;;;;5093536;28;20067;-87
2022/04/26 11:40:50;;;;;;;8.65;2.40;;;;;;;;;;5092473;28;20040;-88
2022/04/26 11:43:20;;;;;;;5.57;1.77;;;;;;;;;;5091918;28;20428;-86
2022/04/26 11:45:48;;;;;;;10.60;2.67;;;;;;;;;;5087825;28;20078;-87
2022/04/26 11:48:15;;;;;;;4.40;1.90;;;;;;;;;;5092527;28;20452;-88
2022/04/26 11:50:43;;;;;;;8.70;2.15;;;;;;;;;;5091482;28;20032;-86
2022/04/26 11:53:10;;;;;;;7.53;1.88;;;;;;;;;;5086674;28;20069;-87
2022/04/26 11:55:41;;;;;;;4.80;2.25;;;;;;;;;;5089510;28;20027;-87
2022/04/26 11:58:17;;;;;;;4.90;2.30;;;;;;;;;;5092611;28;20070;-87
2022/04/26 12:01:07;;;;;;;4.38;1.33;;;;;;;;;;5089589;28;20024;-89
2022/04/26 12:03:49;;;;;;;3.45;1.45;;;;;;;;;;5094039;28;20020;-89
2022/04/26 12:06:35;;;;;;;7.15;2.03;;;;;;;;;;5090100;28;20040;-90
2022/04/26 12:09:04;;;;;;;3.63;1.63;;;;;;;;;;5092791;28;20028;-88
2022/04/26 12:11:36;;;;;;;3.85;1.90;;;;;;;;;;5093488;28;20028;-90
2022/04/26 12:14:14;;;;;;;6.63;1.30;;;;;;;;;;5093211;28;20043;-90
2022/04/26 12:16:54;;;;;;;8.07;2.67;;;;;;;;;;5092266;28;20455;-90
2022/04/26 12:19:32;;;;;;;23.88;7.28;;;;;;;;;;5093084;28;20023;-90
2022/04/26 12:22:01;;;;;;;34.92;9.93;;;;;;;;;;5092257;28;20054;-90
2022/04/26 12:24:31;;;;;;;28.83;14.23;;;;;;;;;;5093805;28;20063;-91
2022/04/26 12:27:01;;;;;;;9.75;2.33;;;;;;;;;;5094166;28;20027;-90
2022/04/26 12:29:28;;;;;;;4.63;1.70;;;;;;;;;;5093744;28;20511;-89
2022/04/26 12:31:54;;;;;;;11.18;4.10;;;;;;;;;;5092438;28;20490;-90
2022/04/26 12:34:24;;;;;;;23.60;7.65;;;;;;;;;;5093916;28;20032;-91
2022/04/26 12:36:58;;;;;;;9.48;4.18;;;;;;;;;;5092625;28;20048;-90
2022/04/26 12:39:52;;;;;;;7.00;2.47;;;;;;;;;;5087880;28;20036;-89
2022/04/26 12:42:27;;;;;;;12.30;4.32;;;;;;;;;;5084942;28;20399;-90
2022/04/26 12:44:58;;;;;;;4.25;1.48;;;;;;;;;;5107245;28;20073;-90
2022/04/26 12:50:28;;;;;;;7.25;2.30;;;;;;;;;;5091918;28;20438;-90
2022/04/26 12:53:07;;;;;;;6.85;2.88;;;;;;;;;;5092453;28;20024;-89
2022/04/26 12:55:38;;;;;;;4.90;2.25;;;;;;;;;;5093842;28;20502;-90
2022/04/26 12:58:11;;;;;;;6.15;1.67;;;;;;;;;;5092039;28;20117;-87
2022/04/26 13:00:51;;;;;;;5.60;1.70;;;;;;;;;;5093334;28;20093;-92
2022/04/26 13:03:21;;;;;;;12.18;3.00;;;;;;;;;;5092810;28;20481;-91
2022/04/26 13:06:11;;;;;;;9.00;3.90;;;;;;;;;;5094153;28;20028;-90
2022/04/26 13:08:38;;;;;;;3.85;1.80;;;;;;;;;;5086387;28;20016;-91
2022/04/26 13:11:05;;;;;;;6.93;2.13;;;;;;;;;;5091652;28;20032;-91
2022/04/26 13:13:32;;;;;;;6.60;3.25;;;;;;;;;;5092273;28;20020;-91
2022/04/26 13:15:58;;;;;;;4.25;1.60;;;;;;;;;;5093230;28;20511;-90
2022/04/26 13:18:24;;;;;;;4.45;1.55;;;;;;;;;;5092843;28;20024;-90
2022/04/26 13:20:50;;;;;;;5.30;1.58;;;;;;;;;;5091793;28;20032;-93
2022/04/26 13:23:16;;;;;;;4.65;1.42;;;;;;;;;;5093095;28;20039;-93
2022/04/26 13:25:43;;;;;;;4.85;1.52;;;;;;;;;;5091826;28;20410;-91
2022/04/26 13:28:09;;;;;;;5.22;1.33;;;;;;;;;;5092870;28;20020;-91
2022/04/26 13:33:19;;;;;;;3.42;1.20;;;;;;;;;;5091480;28;20035;-92
2022/04/26 13:35:44;;;;;;;4.95;1.08;;;;;;;;;;5092188;28;20479;-90
2022/04/26 13:38:12;;;;;;;4.97;1.40;;;;;;;;;;5092622;28;20063;-89
2022/04/26 13:40:38;;;;;;;3.00;1.17;;;;;;;;;;5092777;28;20032;-91
2022/04/26 13:43:05;;;;;;;5.20;1.48;;;;;;;;;;5092592;28;20039;-87
2022/04/26 13:45:32;;;;;;;5.68;1.83;;;;;;;;;;5093220;28;20036;-91
2022/04/26 13:47:59;;;;;;;3.83;1.48;;;;;;;;;;5092711;28;20046;-90
2022/04/26 13:50:25;;;;;;;3.50;1.15;;;;;;;;;;5091461;28;20024;-88
2022/04/26 13:52:50;;;;;;;5.18;1.42;;;;;;;;;;5092942;28;20363;-87
2022/04/26 13:55:17;;;;;;;8.85;1.95;;;;;;;;;;5090868;28;20039;-92
2022/04/26 13:57:44;;;;;;;4.97;1.58;;;;;;;;;;5091473;28;20030;-91
2022/04/26 14:00:11;;;;;;;2.53;1.20;;;;;;;;;;5091270;28;20036;-91
2022/04/26 14:02:37;;;;;;;5.00;1.40;;;;;;;;;;5091293;28;20039;-89
2022/04/26 14:05:04;;;;;;;3.05;1.50;;;;;;;;;;5092757;28;20463;-91
2022/04/26 14:07:30;;;;;;;5.93;1.27;;;;;;;;;;5091171;28;20020;-91
2022/04/26 14:09:55;;;;;;;4.85;1.63;;;;;;;;;;5091344;28;20412;-88
2022/04/26 14:12:21;;;;;;;4.63;1.25;;;;;;;;;;5091482;28;20055;-93
2022/04/26 14:23:03;;;;;;;4.00;1.50;;;;;;;;;;5088355;28;20035;-91
2022/04/26 14:25:29;;;;;;;3.00;1.08;;;;;;;;;;5090881;28;20106;-90
2022/04/26 14:27:54;;;;;;;7.25;1.67;;;;;;;;;;5092163;28;20110;-90
2022/04/26 14:30:20;;;;;;;7.72;1.75;;;;;;;;;;5091125;28;20028;-89
2022/04/26 14:32:45;;;;;;;4.25;1.95;;;;;;;;;;5088366;28;20365;-89
2022/04/26 14:35:12;;;;;;;1.85;1.20;;;;;;;;;;5091638;28;20027;-90
2022/04/26 14:37:37;;;;;;;4.65;1.10;;;;;;;;;;5088122;28;20049;-88
2022/04/26 14:40:04;;;;;;;6.97;1.65;;;;;;;;;;5083715;28;20016;-87
2022/04/26 14:42:30;;;;;;;4.32;1.27;;;;;;;;;;5087194;28;20038;-88
2022/04/26 14:44:57;;;;;;;5.20;1.27;;;;;;;;;;5091522;28;20475;-87
2022/04/26 14:47:22;;;;;;;5.20;1.80;;;;;;;;;;5095050;28;21652;-88
2022/04/26 14:49:49;;;;;;;3.42;2.33;;;;;;;;;;5092503;28;20027;-85
2022/04/26 14:52:21;;;;;;;2.97;1.30;;;;;;;;;;5092194;28;20490;-83
2022/04/26 14:54:47;;;;;;;4.07;1.33;;;;;;;;;;5091670;28;20555;-87
2022/04/26 14:57:12;;;;;;;6.28;1.35;;;;;;;;;;5092388;28;20111;-82
2022/04/26 14:59:45;;;;;;;4.95;1.42;;;;;;;;;;5091851;28;20361;-84
2022/04/26 15:02:12;;;;;;;5.95;1.75;;;;;;;;;;5091544;28;20035;-82
2022/04/26 15:04:38;;;;;;;3.03;1.10;;;;;;;;;;5091692;28;20101;-84
2022/04/26 15:07:04;;;;;;;1.83;0.85;;;;;;;;;;5093998;28;20043;-84
2022/04/26 15:09:47;;;;;;;4.07;1.02;;;;;;;;;;5091481;28;20674;-84
2022/04/26 15:17:44;;;;;;;3.15;1.10;;;;;;;;;;5093905;28;20039;-88
2022/04/26 15:20:12;;;;;;;3.42;1.05;;;;;;;;;;5094271;28;20487;-86
2022/04/26 15:22:37;;;;;;;3.58;1.30;;;;;;;;;;5085359;28;20052;-88
2022/04/26 15:25:06;;;;;;;2.10;0.93;;;;;;;;;;5094920;28;20028;-87
2022/04/26 15:27:32;;;;;;;1.70;1.00;;;;;;;;;;5087489;28;20039;-89
2022/04/26 15:29:57;;;;;;;2.30;0.80;;;;;;;;;;5091788;28;20380;-86
2022/04/26 15:32:25;;;;;;;3.00;0.75;;;;;;;;;;5094696;28;20028;-86
2022/04/26 15:34:51;;;;;;;1.67;0.88;;;;;;;;;;5095162;28;20035;-87
2022/04/26 15:37:19;;;;;;;3.33;0.90;;;;;;;;;;5092330;28;20555;-86
2022/04/26 15:39:47;;;;;;;1.35;0.95;;;;;;;;;;5093778;28;20043;-86
2022/04/26 15:42:14;;;;;;;2.00;0.90;;;;;;;;;;5090087;28;20368;-88
2022/04/26 15:44:39;;;;;;;1.25;0.90;;;;;;;;;;5093777;28;20034;-87
2022/04/26 15:47:05;;;;;;;2.35;1.10;;;;;;;;;;5094730;28;20036;-89
2022/04/26 15:49:30;;;;;;;2.90;0.98;;;;;;;;;;5094346;28;20516;-86
2022/04/26 15:51:57;;;;;;;1.88;0.82;;;;;;;;;;5093772;28;20024;-87
2022/04/26 15:54:24;;;;;;;1.42;1.02;;;;;;;;;;5093515;28;20024;-87
2022/04/26 15:56:49;;;;;;;1.70;0.70;;;;;;;;;;5094555;28;20024;-87
2022/04/26 15:59:15;;;;;;;1.25;0.80;;;;;;;;;;5096265;28;20662;-89
2022/04/26 16:01:41;;;;;;;1.75;0.90;;;;;;;;;;5095452;28;20071;-89
2022/04/26 16:04:10;;;;;;;5.78;1.40;;;;;;;;;;5094280;28;20062;-87
2022/04/26 16:06:39;;;;;;;1.85;0.85;;;;;;;;;;5094986;28;20471;-87
2022/04/26 16:22:51;;;;;;;1.00;0.88;;;;;;;;;;5095509;28;20607;-87
2022/04/26 16:25:17;;;;;;;4.43;1.00;;;;;;;;;;5094587;28;20049;-88
2022/04/26 16:27:43;;;;;;;1.27;0.90;;;;;;;;;;5093339;28;20097;-85
2022/04/26 16:30:10;;;;;;;2.80;1.17;;;;;;;;;;5090334;28;20789;-87
2022/04/26 16:32:38;;;;;;;1.65;0.77;;;;;;;;;;5094856;28;20071;-85
2022/04/26 16:35:10;;;;;;;2.22;1.00;;;;;;;;;;5087646;28;20047;-86
2022/04/26 16:37:35;;;;;;;2.72;0.90;;;;;;;;;;5093277;28;20131;-87
2022/04/26 16:40:02;;;;;;;1.20;0.80;;;;;;;;;;5087965;28;20111;-83
2022/04/26 16:42:27;;;;;;;2.00;0.85;;;;;;;;;;5092758;28;20027;-85
2022/04/26 16:44:53;;;;;;;2.53;1.38;;;;;;;;;;5089750;28;20024;-85
2022/04/26 16:47:19;;;;;;;4.85;1.00;;;;;;;;;;5092921;28;20077;-85
2022/04/26 16:49:44;;;;;;;2.63;1.35;;;;;;;;;;5090758;28;20028;-85
2022/04/26 16:52:09;;;;;;;2.50;1.20;;;;;;;;;;5088951;28;20028;-85
2022/04/26 16:54:35;;;;;;;3.22;1.30;;;;;;;;;;5088047;28;20495;-82
2022/04/26 16:57:03;;;;;;;6.57;1.80;;;;;;;;;;5087756;28;20361;-86
2022/04/26 16:59:30;;;;;;;4.22;1.60;;;;;;;;;;5090610;28;20111;-84
2022/04/26 17:01:56;;;;;;;2.90;2.10;;;;;;;;;;5086164;28;20055;-85
2022/04/26 17:04:22;;;;;;;4.63;2.70;;;;;;;;;;5088806;28;20032;-86
2022/04/26 17:06:48;;;;;;;4.97;2.92;;;;;;;;;;5089596;28;20020;-85
2022/04/26 17:09:14;;;;;;;5.60;2.70;;;;;;;;;;5089353;28;20407;-83
2022/04/26 17:11:42;;;;;;;3.67;1.88;;;;;;;;;;5085917;28;20033;-85
2022/04/26 17:14:07;;;;;;;3.33;1.42;;;;;;;;;;5089887;28;20395;-85
2022/04/26 17:16:33;;;;;;;4.30;1.55;;;;;;;;;;5092847;28;20024;-85
2022/04/26 17:18:58;;;;;;;9.00;2.75;;;;;;;;;;5092466;28;20028;-83
2022/04/26 17:21:24;;;;;;;4.85;2.00;;;;;;;;;;5092834;28;20024;-87
2022/04/26 17:23:50;;;;;;;4.90;1.98;;;;;;;;;;5091695;28;20024;-88
2022/04/26 17:26:17;;;;;;;6.32;2.38;;;;;;;;;;5092641;28;20387;-87
2022/04/26 17:28:43;;;;;;;3.70;2.25;;;;;;;;;;5090028;28;20020;-88
2022/04/26 17:31:09;;;;;;;4.55;2.00;;;;;;;;;;5090867;28;20114;-89
2022/04/26 17:33:34;;;;;;;3.45;2.17;;;;;;;;;;5086119;28;20028;-86
2022/04/26 17:36:01;;;;;;;4.50;2.08;;;;;;;;;;5087665;28;20388;-85
2022/04/26 17:38:27;;;;;;;3.90;2.03;;;;;;;;;;5092146;28;20020;-86
2022/04/26 17:40:53;;;;;;;4.03;1.70;;;;;;;;;;5092375;28;20032;-86
2022/04/26 17:43:18;;;;;;;3.60;1.70;;;;;;;;;;5092599;28;20055;-89
2022/04/26 17:45:46;;;;;;;2.80;1.67;;;;;;;;;;5091952;28;20028;-86
2022/04/26 17:48:15;;;;;;;2.65;1.52;;;;;;;;;;5091565;28;20125;-86
2022/04/26 17:50:45;;;;;;;4.18;1.92;;;;;;;;;;5091217;28;20641;-89
2022/04/26 17:58:40;;;;;;;3.75;2.03;;;;;;;;;;5090873;28;20035;-88
2022/04/26 18:01:05;;;;;;;3.20;2.10;;;;;;;;;;5090965;28;20391;-88
2022/04/26 18:03:31;;;;;;;2.85;1.95;;;;;;;;;;5090897;28;20052;-88
2022/04/26 18:05:57;;;;;;;4.80;3.08;;;;;;;;;;5092820;28;20016;-88
2022/04/26 18:08:24;;;;;;;2.70;1.67;;;;;;;;;;5088276;28;20027;-89
2022/04/26 18:10:50;;;;;;;4.72;2.42;;;;;;;;;;5091279;28;20023;-89
2022/04/26 18:13:16;;;;;;;5.50;3.15;;;;;;;;;;5091105;28;20031;-89
2022/04/26 18:15:42;;;;;;;4.57;2.13;;;;;;;;;;5092273;28;20032;-88
2022/04/26 18:18:07;;;;;;;5.22;1.35;;;;;;;;;;5092628;28;20166;-88
2022/04/26 18:20:33;;;;;;;4.07;1.60;;;;;;;;;;5096083;28;20039;-89
2022/04/26 18:22:58;;;;;;;1.73;1.20;;;;;;;;;;5096094;28;20024;-88
2022/04/26 18:28:07;;;;;;;2.25;1.20;;;;;;;;;;5095907;28;20042;-88
2022/04/26 18:30:33;;;;;;;3.15;1.80;;;;;;;;;;5095986;28;20020;-86
2022/04/26 18:32:58;;;;;;;1.70;1.30;;;;;;;;;;5094972;28;20020;-88
2022/04/26 18:35:24;;;;;;;2.40;1.80;;;;;;;;;;5095890;28;20383;-88
2022/04/26 18:37:49;;;;;;;1.08;0.98;;;;;;;;;;5096030;28;20036;-88
2022/04/26 18:40:17;;;;;;;2.55;1.10;;;;;;;;;;5094492;28;20016;-86
2022/04/26 18:42:42;;;;;;;2.60;1.50;;;;;;;;;;5094248;28;20028;-88
2022/04/26 18:45:08;;;;;;;2.10;1.10;;;;;;;;;;5093938;28;20122;-86
2022/04/26 18:47:33;;;;;;;1.58;1.33;;;;;;;;;;5089961;28;20493;-87
2022/04/26 18:49:59;;;;;;;9.65;7.88;;;;;;;;;;5094160;28;20028;-88
2022/04/26 18:52:24;;;;;;;13.48;10.57;;;;;;;;;;5095456;28;20032;-87
2022/04/26 18:54:50;;;;;;;10.98;6.43;;;;;;;;;;5094053;28;20046;-87
2022/04/26 18:57:17;;;;;;;3.92;1.50;;;;;;;;;;5093998;28;20051;-89
2022/04/26 18:59:43;;;;;;;2.50;1.80;;;;;;;;;;5093895;28;20020;-87
2022/04/26 19:02:09;;;;;;;2.08;1.33;;;;;;;;;;5094051;28;20092;-86
2022/04/26 19:04:34;;;;;;;5.70;1.60;;;;;;;;;;5094000;28;20455;-88
2022/04/26 19:07:03;;;;;;;3.10;1.77;;;;;;;;;;5092599;28;20024;-89
2022/04/26 19:09:29;;;;;;;2.17;1.50;;;;;;;;;;5094006;28;20024;-89
2022/04/26 19:14:42;;;;;;;3.20;1.80;;;;;;;;;;5089772;28;20051;-89
2022/04/26 19:17:08;;;;;;;3.42;1.50;;;;;;;;;;5094140;28;20391;-89
2022/04/26 19:19:34;;;;;;;2.65;1.60;;;;;;;;;;5094096;28;20032;-88
2022/04/26 19:21:59;;;;;;;2.00;1.50;;;;;;;;;;5094245;28;20478;-88
2022/04/26 19:24:26;;;;;;;5.35;1.50;;;;;;;;;;5094039;28;20028;-88
2022/04/26 19:26:52;;;;;;;2.90;1.50;;;;;;;;;;5095512;28;20111;-87